sensor_id;sensor_type;location;lat;lon;timestamp;temperature;humidity
63051;SHT30;49136;47.416;19.402;2023-05-08T00:00:03;7.28;92.70
63051;SHT30;49136;47.416;19.402;2023-05-08T00:02:30;7.24;93.78
63051;SHT30;49136;47.416;19.402;2023-05-08T00:04:55;7.20;94.38
63051;SHT30;49136;47.416;19.402;2023-05-08T00:07:21;7.13;94.19
63051;SHT30;49136;47.416;19.402;2023-05-08T00:09:46;7.00;94.57
63051;SHT30;49136;47.416;19.402;2023-05-08T00:12:12;6.92;94.75
63051;SHT30;49136;47.416;19.402;2023-05-08T00:14:38;6.84;94.86
63051;SHT30;49136;47.416;19.402;2023-05-08T00:17:03;6.71;94.89
63051;SHT30;49136;47.416;19.402;2023-05-08T00:19:29;6.73;95.01
63051;SHT30;49136;47.416;19.402;2023-05-08T00:21:54;6.82;94.48
63051;SHT30;49136;47.416;19.402;2023-05-08T00:24:20;6.85;94.70
63051;SHT30;49136;47.416;19.402;2023-05-08T00:26:45;6.84;94.88
63051;SHT30;49136;47.416;19.402;2023-05-08T00:29:10;6.82;94.92
63051;SHT30;49136;47.416;19.402;2023-05-08T00:31:36;6.80;95.10
63051;SHT30;49136;47.416;19.402;2023-05-08T00:34:01;6.78;95.34
63051;SHT30;49136;47.416;19.402;2023-05-08T00:36:27;6.78;95.39
63051;SHT30;49136;47.416;19.402;2023-05-08T00:38:53;6.75;95.50
63051;SHT30;49136;47.416;19.402;2023-05-08T00:41:18;6.73;96.07
63051;SHT30;49136;47.416;19.402;2023-05-08T00:43:43;6.71;96.75
63051;SHT30;49136;47.416;19.402;2023-05-08T00:46:10;6.60;96.25
63051;SHT30;49136;47.416;19.402;2023-05-08T00:48:36;6.50;96.35
63051;SHT30;49136;47.416;19.402;2023-05-08T00:51:04;6.41;96.73
63051;SHT30;49136;47.416;19.402;2023-05-08T00:53:32;6.41;96.81
63051;SHT30;49136;47.416;19.402;2023-05-08T00:55:59;6.37;96.58
63051;SHT30;49136;47.416;19.402;2023-05-08T00:58:26;6.29;96.76
63051;SHT30;49136;47.416;19.402;2023-05-08T01:00:54;6.16;96.83
63051;SHT30;49136;47.416;19.402;2023-05-08T01:03:21;6.08;97.44
63051;SHT30;49136;47.416;19.402;2023-05-08T01:05:47;5.95;97.95
63051;SHT30;49136;47.416;19.402;2023-05-08T01:08:13;5.90;98.13
63051;SHT30;49136;47.416;19.402;2023-05-08T01:13:41;5.83;98.74
63051;SHT30;49136;47.416;19.402;2023-05-08T01:16:22;5.80;98.72
63051;SHT30;49136;47.416;19.402;2023-05-08T01:21:43;5.75;98.65
63051;SHT30;49136;47.416;19.402;2023-05-08T01:32:59;5.54;98.29
63051;SHT30;49136;47.416;19.402;2023-05-08T01:35:31;5.47;98.67
63051;SHT30;49136;47.416;19.402;2023-05-08T01:41:07;5.39;99.37
63051;SHT30;49136;47.416;19.402;2023-05-08T01:44:05;5.42;99.27
63051;SHT30;49136;47.416;19.402;2023-05-08T01:46:33;5.35;99.19
63051;SHT30;49136;47.416;19.402;2023-05-08T01:49:04;5.38;98.87
63051;SHT30;49136;47.416;19.402;2023-05-08T01:51:34;5.36;99.17
63051;SHT30;49136;47.416;19.402;2023-05-08T01:54:04;5.36;98.94
63051;SHT30;49136;47.416;19.402;2023-05-08T01:56:30;5.35;98.96
63051;SHT30;49136;47.416;19.402;2023-05-08T01:58:58;5.32;98.97
63051;SHT30;49136;47.416;19.402;2023-05-08T02:01:25;5.27;99.22
63051;SHT30;49136;47.416;19.402;2023-05-08T02:03:54;5.27;99.25
63051;SHT30;49136;47.416;19.402;2023-05-08T02:06:21;5.27;99.18
63051;SHT30;49136;47.416;19.402;2023-05-08T02:08:47;5.21;99.03
63051;SHT30;49136;47.416;19.402;2023-05-08T02:11:14;5.17;99.16
63051;SHT30;49136;47.416;19.402;2023-05-08T02:13:41;5.18;98.80
63051;SHT30;49136;47.416;19.402;2023-05-08T02:16:09;5.18;98.96
63051;SHT30;49136;47.416;19.402;2023-05-08T02:18:37;5.21;98.88
63051;SHT30;49136;47.416;19.402;2023-05-08T02:21:05;5.19;99.19
63051;SHT30;49136;47.416;19.402;2023-05-08T02:23:33;5.22;99.11
63051;SHT30;49136;47.416;19.402;2023-05-08T02:26:01;5.31;99.38
63051;SHT30;49136;47.416;19.402;2023-05-08T02:28:28;5.34;99.29
63051;SHT30;49136;47.416;19.402;2023-05-08T02:30:55;5.36;98.91
63051;SHT30;49136;47.416;19.402;2023-05-08T02:33:23;5.34;98.86
63051;SHT30;49136;47.416;19.402;2023-05-08T02:35:49;5.38;98.84
63051;SHT30;49136;47.416;19.402;2023-05-08T02:38:16;5.32;98.88
63051;SHT30;49136;47.416;19.402;2023-05-08T02:40:48;5.32;98.66
63051;SHT30;49136;47.416;19.402;2023-05-08T02:43:15;5.38;98.30
63051;SHT30;49136;47.416;19.402;2023-05-08T02:49:06;5.36;98.41
63051;SHT30;49136;47.416;19.402;2023-05-08T02:57:09;5.53;98.92
63051;SHT30;49136;47.416;19.402;2023-05-08T03:02:36;5.64;99.35
63051;SHT30;49136;47.416;19.402;2023-05-08T03:05:12;5.62;98.91
63051;SHT30;49136;47.416;19.402;2023-05-08T03:07:40;5.62;99.03
63051;SHT30;49136;47.416;19.402;2023-05-08T03:10:13;5.70;99.30
63051;SHT30;49136;47.416;19.402;2023-05-08T03:12:44;5.78;98.37
63051;SHT30;49136;47.416;19.402;2023-05-08T03:15:18;5.78;98.33
63051;SHT30;49136;47.416;19.402;2023-05-08T03:17:47;5.88;98.66
63051;SHT30;49136;47.416;19.402;2023-05-08T03:20:16;5.88;98.38
63051;SHT30;49136;47.416;19.402;2023-05-08T03:22:43;5.91;97.99
63051;SHT30;49136;47.416;19.402;2023-05-08T03:25:10;5.94;98.20
63051;SHT30;49136;47.416;19.402;2023-05-08T03:27:37;5.97;97.63
63051;SHT30;49136;47.416;19.402;2023-05-08T03:30:05;6.06;97.95
63051;SHT30;49136;47.416;19.402;2023-05-08T03:32:31;6.19;98.02
63051;SHT30;49136;47.416;19.402;2023-05-08T03:35:00;6.29;97.42
63051;SHT30;49136;47.416;19.402;2023-05-08T03:37:27;6.37;97.01
63051;SHT30;49136;47.416;19.402;2023-05-08T03:39:53;6.46;96.73
63051;SHT30;49136;47.416;19.402;2023-05-08T03:42:19;6.58;97.01
63051;SHT30;49136;47.416;19.402;2023-05-08T03:44:52;6.64;96.87
63051;SHT30;49136;47.416;19.402;2023-05-08T03:47:18;6.67;96.72
63051;SHT30;49136;47.416;19.402;2023-05-08T03:49:45;6.75;96.28
63051;SHT30;49136;47.416;19.402;2023-05-08T03:52:15;6.85;96.04
63051;SHT30;49136;47.416;19.402;2023-05-08T03:54:41;6.93;96.07
63051;SHT30;49136;47.416;19.402;2023-05-08T03:57:07;7.00;95.41
63051;SHT30;49136;47.416;19.402;2023-05-08T04:00:13;7.09;95.39
63051;SHT30;49136;47.416;19.402;2023-05-08T04:03:21;7.23;94.84
63051;SHT30;49136;47.416;19.402;2023-05-08T04:08:46;7.54;94.81
63051;SHT30;49136;47.416;19.402;2023-05-08T04:11:25;7.69;94.55
63051;SHT30;49136;47.416;19.402;2023-05-08T04:14:01;7.79;95.11
63051;SHT30;49136;47.416;19.402;2023-05-08T04:16:29;7.85;94.58
63051;SHT30;49136;47.416;19.402;2023-05-08T04:19:02;7.83;93.68
63051;SHT30;49136;47.416;19.402;2023-05-08T04:21:33;7.93;92.85
63051;SHT30;49136;47.416;19.402;2023-05-08T04:24:00;8.06;93.12
63051;SHT30;49136;47.416;19.402;2023-05-08T04:26:27;8.21;93.39
63051;SHT30;49136;47.416;19.402;2023-05-08T04:28:53;8.33;92.12
63051;SHT30;49136;47.416;19.402;2023-05-08T04:31:19;8.44;92.66
63051;SHT30;49136;47.416;19.402;2023-05-08T04:33:46;8.51;92.29
63051;SHT30;49136;47.416;19.402;2023-05-08T04:36:12;8.63;91.76
63051;SHT30;49136;47.416;19.402;2023-05-08T04:38:39;8.76;91.55
63051;SHT30;49136;47.416;19.402;2023-05-08T04:41:05;8.83;91.44
63051;SHT30;49136;47.416;19.402;2023-05-08T04:43:31;8.96;90.42
63051;SHT30;49136;47.416;19.402;2023-05-08T04:45:56;9.01;90.08
63051;SHT30;49136;47.416;19.402;2023-05-08T04:48:22;9.05;88.58
63051;SHT30;49136;47.416;19.402;2023-05-08T04:50:47;9.18;89.10
63051;SHT30;49136;47.416;19.402;2023-05-08T04:53:12;9.28;89.67
63051;SHT30;49136;47.416;19.402;2023-05-08T04:55:38;9.34;89.23
63051;SHT30;49136;47.416;19.402;2023-05-08T04:58:03;9.43;88.05
63051;SHT30;49136;47.416;19.402;2023-05-08T05:00:29;9.53;87.27
63051;SHT30;49136;47.416;19.402;2023-05-08T05:02:54;9.48;87.94
63051;SHT30;49136;47.416;19.402;2023-05-08T05:05:20;9.55;86.37
63051;SHT30;49136;47.416;19.402;2023-05-08T05:07:45;9.49;86.31
63051;SHT30;49136;47.416;19.402;2023-05-08T05:10:10;9.56;86.53
63051;SHT30;49136;47.416;19.402;2023-05-08T05:12:36;9.76;87.84
63051;SHT30;49136;47.416;19.402;2023-05-08T05:15:02;9.93;87.14
63051;SHT30;49136;47.416;19.402;2023-05-08T05:17:29;10.01;86.87
63051;SHT30;49136;47.416;19.402;2023-05-08T05:19:55;9.87;84.61
63051;SHT30;49136;47.416;19.402;2023-05-08T05:22:21;9.86;85.08
63051;SHT30;49136;47.416;19.402;2023-05-08T05:24:47;10.07;84.77
63051;SHT30;49136;47.416;19.402;2023-05-08T05:27:12;9.95;84.50
63051;SHT30;49136;47.416;19.402;2023-05-08T05:29:38;9.94;83.50
63051;SHT30;49136;47.416;19.402;2023-05-08T05:32:03;9.81;85.01
63051;SHT30;49136;47.416;19.402;2023-05-08T05:34:31;9.81;84.52
63051;SHT30;49136;47.416;19.402;2023-05-08T05:36:56;10.09;84.69
63051;SHT30;49136;47.416;19.402;2023-05-08T05:39:22;10.22;82.90
63051;SHT30;49136;47.416;19.402;2023-05-08T05:41:47;10.35;82.25
63051;SHT30;49136;47.416;19.402;2023-05-08T05:44:12;10.04;82.04
63051;SHT30;49136;47.416;19.402;2023-05-08T05:46:38;10.14;80.85
63051;SHT30;49136;47.416;19.402;2023-05-08T05:49:04;10.46;81.34
63051;SHT30;49136;47.416;19.402;2023-05-08T05:51:29;10.87;81.38
63051;SHT30;49136;47.416;19.402;2023-05-08T05:53:54;11.08;81.32
63051;SHT30;49136;47.416;19.402;2023-05-08T05:56:21;11.05;80.72
63051;SHT30;49136;47.416;19.402;2023-05-08T05:58:47;10.90;78.55
63051;SHT30;49136;47.416;19.402;2023-05-08T06:01:13;11.11;79.08
63051;SHT30;49136;47.416;19.402;2023-05-08T06:03:39;11.07;77.88
63051;SHT30;49136;47.416;19.402;2023-05-08T06:06:04;11.23;78.08
63051;SHT30;49136;47.416;19.402;2023-05-08T06:08:30;11.47;78.90
63051;SHT30;49136;47.416;19.402;2023-05-08T06:10:55;11.46;78.12
63051;SHT30;49136;47.416;19.402;2023-05-08T06:13:21;11.42;76.53
63051;SHT30;49136;47.416;19.402;2023-05-08T06:15:46;11.77;76.65
63051;SHT30;49136;47.416;19.402;2023-05-08T06:18:12;12.05;75.65
63051;SHT30;49136;47.416;19.402;2023-05-08T06:20:37;12.27;77.44
63051;SHT30;49136;47.416;19.402;2023-05-08T06:23:03;12.19;76.02
63051;SHT30;49136;47.416;19.402;2023-05-08T06:25:29;12.50;73.83
63051;SHT30;49136;47.416;19.402;2023-05-08T06:27:55;12.57;74.20
63051;SHT30;49136;47.416;19.402;2023-05-08T06:30:21;12.82;73.50
63051;SHT30;49136;47.416;19.402;2023-05-08T06:32:46;12.36;73.49
63051;SHT30;49136;47.416;19.402;2023-05-08T06:35:12;12.97;72.95
63051;SHT30;49136;47.416;19.402;2023-05-08T06:37:37;13.61;70.73
63051;SHT30;49136;47.416;19.402;2023-05-08T06:40:03;13.54;71.18
63051;SHT30;49136;47.416;19.402;2023-05-08T06:42:28;13.37;71.62
63051;SHT30;49136;47.416;19.402;2023-05-08T06:44:54;14.51;71.48
63051;SHT30;49136;47.416;19.402;2023-05-08T06:47:19;14.31;68.00
63051;SHT30;49136;47.416;19.402;2023-05-08T06:49:45;14.93;67.04
63051;SHT30;49136;47.416;19.402;2023-05-08T06:52:10;14.58;67.44
63051;SHT30;49136;47.416;19.402;2023-05-08T06:54:36;14.79;68.72
63051;SHT30;49136;47.416;19.402;2023-05-08T06:57:01;14.31;67.03
63051;SHT30;49136;47.416;19.402;2023-05-08T06:59:26;14.69;67.14
63051;SHT30;49136;47.416;19.402;2023-05-08T07:01:52;14.77;65.37
63051;SHT30;49136;47.416;19.402;2023-05-08T07:04:17;15.03;67.58
63051;SHT30;49136;47.416;19.402;2023-05-08T07:06:43;15.18;66.98
63051;SHT30;49136;47.416;19.402;2023-05-08T07:09:08;15.21;65.67
63051;SHT30;49136;47.416;19.402;2023-05-08T07:11:34;15.18;67.38
63051;SHT30;49136;47.416;19.402;2023-05-08T07:14:00;15.28;64.46
63051;SHT30;49136;47.416;19.402;2023-05-08T07:16:25;15.43;65.64
63051;SHT30;49136;47.416;19.402;2023-05-08T07:18:51;15.23;65.23
63051;SHT30;49136;47.416;19.402;2023-05-08T07:21:16;15.01;65.66
63051;SHT30;49136;47.416;19.402;2023-05-08T07:23:44;15.50;68.07
63051;SHT30;49136;47.416;19.402;2023-05-08T07:26:10;15.00;64.10
63051;SHT30;49136;47.416;19.402;2023-05-08T07:28:35;15.90;69.72
63051;SHT30;49136;47.416;19.402;2023-05-08T07:31:03;15.48;64.01
63051;SHT30;49136;47.416;19.402;2023-05-08T07:33:31;15.73;62.56
63051;SHT30;49136;47.416;19.402;2023-05-08T07:35:58;16.12;68.65
63051;SHT30;49136;47.416;19.402;2023-05-08T07:38:24;16.43;65.22
63051;SHT30;49136;47.416;19.402;2023-05-08T07:40:49;16.22;62.41
63051;SHT30;49136;47.416;19.402;2023-05-08T07:43:16;16.29;63.90
63051;SHT30;49136;47.416;19.402;2023-05-08T07:45:43;16.49;63.23
63051;SHT30;49136;47.416;19.402;2023-05-08T07:48:09;16.32;63.50
63051;SHT30;49136;47.416;19.402;2023-05-08T07:50:34;16.17;62.82
63051;SHT30;49136;47.416;19.402;2023-05-08T07:53:00;15.74;65.54
63051;SHT30;49136;47.416;19.402;2023-05-08T07:55:25;15.46;65.30
63051;SHT30;49136;47.416;19.402;2023-05-08T07:57:51;15.18;63.37
63051;SHT30;49136;47.416;19.402;2023-05-08T08:00:16;15.79;64.35
63051;SHT30;49136;47.416;19.402;2023-05-08T08:02:43;15.89;63.19
63051;SHT30;49136;47.416;19.402;2023-05-08T08:05:08;15.90;64.15
63051;SHT30;49136;47.416;19.402;2023-05-08T08:07:34;15.93;64.44
63051;SHT30;49136;47.416;19.402;2023-05-08T08:10:00;16.29;62.69
63051;SHT30;49136;47.416;19.402;2023-05-08T08:12:26;16.15;63.96
63051;SHT30;49136;47.416;19.402;2023-05-08T08:14:52;16.53;61.98
63051;SHT30;49136;47.416;19.402;2023-05-08T08:17:18;16.29;62.23
63051;SHT30;49136;47.416;19.402;2023-05-08T08:19:43;16.21;63.35
63051;SHT30;49136;47.416;19.402;2023-05-08T08:22:09;16.30;61.97
63051;SHT30;49136;47.416;19.402;2023-05-08T08:24:34;15.87;65.12
63051;SHT30;49136;47.416;19.402;2023-05-08T08:27:00;16.19;63.40
63051;SHT30;49136;47.416;19.402;2023-05-08T08:29:25;16.52;61.64
63051;SHT30;49136;47.416;19.402;2023-05-08T08:31:51;16.26;60.37
63051;SHT30;49136;47.416;19.402;2023-05-08T08:34:16;16.77;64.50
63051;SHT30;49136;47.416;19.402;2023-05-08T08:36:42;16.64;60.83
63051;SHT30;49136;47.416;19.402;2023-05-08T08:39:07;16.78;61.03
63051;SHT30;49136;47.416;19.402;2023-05-08T08:41:33;16.43;60.22
63051;SHT30;49136;47.416;19.402;2023-05-08T08:43:58;16.02;60.73
63051;SHT30;49136;47.416;19.402;2023-05-08T08:46:26;16.69;61.77
63051;SHT30;49136;47.416;19.402;2023-05-08T08:48:53;16.70;59.89
63051;SHT30;49136;47.416;19.402;2023-05-08T08:51:42;16.55;59.84
63051;SHT30;49136;47.416;19.402;2023-05-08T08:54:12;17.12;62.16
63051;SHT30;49136;47.416;19.402;2023-05-08T08:56:39;16.77;59.32
63051;SHT30;49136;47.416;19.402;2023-05-08T08:59:05;16.45;58.72
63051;SHT30;49136;47.416;19.402;2023-05-08T09:01:35;17.07;59.24
63051;SHT30;49136;47.416;19.402;2023-05-08T09:04:02;16.66;59.44
63051;SHT30;49136;47.416;19.402;2023-05-08T09:06:29;17.07;60.29
63051;SHT30;49136;47.416;19.402;2023-05-08T09:08:55;16.87;58.36
63051;SHT30;49136;47.416;19.402;2023-05-08T09:11:24;16.91;59.40
63051;SHT30;49136;47.416;19.402;2023-05-08T09:13:50;16.96;58.25
63051;SHT30;49136;47.416;19.402;2023-05-08T09:16:16;17.57;57.97
63051;SHT30;49136;47.416;19.402;2023-05-08T09:18:42;17.36;56.97
63051;SHT30;49136;47.416;19.402;2023-05-08T09:21:07;17.25;58.08
63051;SHT30;49136;47.416;19.402;2023-05-08T09:23:37;17.32;56.90
63051;SHT30;49136;47.416;19.402;2023-05-08T09:26:44;17.16;56.78
63051;SHT30;49136;47.416;19.402;2023-05-08T09:31:52;17.64;57.50
63051;SHT30;49136;47.416;19.402;2023-05-08T09:34:28;17.81;56.17
63051;SHT30;49136;47.416;19.402;2023-05-08T09:36:55;17.66;55.56
63051;SHT30;49136;47.416;19.402;2023-05-08T09:39:24;17.78;57.31
63051;SHT30;49136;47.416;19.402;2023-05-08T09:42:03;17.71;55.81
63051;SHT30;49136;47.416;19.402;2023-05-08T09:44:49;18.25;56.43
63051;SHT30;49136;47.416;19.402;2023-05-08T09:47:19;17.96;56.56
63051;SHT30;49136;47.416;19.402;2023-05-08T09:50:03;18.10;54.44
63051;SHT30;49136;47.416;19.402;2023-05-08T09:52:30;18.23;55.79
63051;SHT30;49136;47.416;19.402;2023-05-08T09:55:07;18.13;54.89
63051;SHT30;49136;47.416;19.402;2023-05-08T09:57:36;18.44;54.28
63051;SHT30;49136;47.416;19.402;2023-05-08T10:00:11;18.69;56.98
63051;SHT30;49136;47.416;19.402;2023-05-08T10:02:41;18.28;55.94
63051;SHT30;49136;47.416;19.402;2023-05-08T10:05:29;18.53;55.10
63051;SHT30;49136;47.416;19.402;2023-05-08T10:07:56;18.30;55.68
63051;SHT30;49136;47.416;19.402;2023-05-08T10:10:31;18.05;54.96
63051;SHT30;49136;47.416;19.402;2023-05-08T10:12:57;17.89;55.26
63051;SHT30;49136;47.416;19.402;2023-05-08T10:15:24;17.73;55.69
63051;SHT30;49136;47.416;19.402;2023-05-08T10:17:59;18.15;55.75
63051;SHT30;49136;47.416;19.402;2023-05-08T10:20:28;18.55;53.66
63051;SHT30;49136;47.416;19.402;2023-05-08T10:22:55;18.78;54.92
63051;SHT30;49136;47.416;19.402;2023-05-08T10:25:22;18.61;54.28
63051;SHT30;49136;47.416;19.402;2023-05-08T10:30:24;17.98;56.46
63051;SHT30;49136;47.416;19.402;2023-05-08T10:32:51;18.46;54.93
63051;SHT30;49136;47.416;19.402;2023-05-08T10:35:20;18.88;55.60
63051;SHT30;49136;47.416;19.402;2023-05-08T10:37:47;19.26;54.87
63051;SHT30;49136;47.416;19.402;2023-05-08T10:40:14;18.99;53.54
63051;SHT30;49136;47.416;19.402;2023-05-08T10:42:46;19.12;55.91
63051;SHT30;49136;47.416;19.402;2023-05-08T10:45:12;18.81;52.90
63051;SHT30;49136;47.416;19.402;2023-05-08T10:47:55;18.61;54.06
63051;SHT30;49136;47.416;19.402;2023-05-08T10:50:50;19.06;53.30
63051;SHT30;49136;47.416;19.402;2023-05-08T10:53:21;19.38;51.87
63051;SHT30;49136;47.416;19.402;2023-05-08T10:55:51;18.81;53.65
63051;SHT30;49136;47.416;19.402;2023-05-08T11:03:22;18.79;51.16
63051;SHT30;49136;47.416;19.402;2023-05-08T11:05:49;19.33;52.98
63051;SHT30;49136;47.416;19.402;2023-05-08T11:08:26;19.06;50.48
63051;SHT30;49136;47.416;19.402;2023-05-08T11:13:56;19.74;49.08
63051;SHT30;49136;47.416;19.402;2023-05-08T11:19:29;20.00;50.27
63051;SHT30;49136;47.416;19.402;2023-05-08T11:22:20;20.14;51.28
63051;SHT30;49136;47.416;19.402;2023-05-08T11:24:54;19.53;49.80
63051;SHT30;49136;47.416;19.402;2023-05-08T11:30:46;19.64;50.33
63051;SHT30;49136;47.416;19.402;2023-05-08T11:33:12;19.35;50.59
63051;SHT30;49136;47.416;19.402;2023-05-08T11:38:17;19.61;51.05
63051;SHT30;49136;47.416;19.402;2023-05-08T11:40:47;19.83;51.10
63051;SHT30;49136;47.416;19.402;2023-05-08T11:48:38;19.64;51.70
63051;SHT30;49136;47.416;19.402;2023-05-08T11:51:04;19.41;50.81
63051;SHT30;49136;47.416;19.402;2023-05-08T11:53:30;19.86;50.58
63051;SHT30;49136;47.416;19.402;2023-05-08T11:55:56;19.65;51.54
63051;SHT30;49136;47.416;19.402;2023-05-08T11:58:21;20.25;50.52
63051;SHT30;49136;47.416;19.402;2023-05-08T12:00:47;20.52;50.05
63051;SHT30;49136;47.416;19.402;2023-05-08T12:03:18;20.59;49.01
63051;SHT30;49136;47.416;19.402;2023-05-08T12:05:45;20.72;49.92
63051;SHT30;49136;47.416;19.402;2023-05-08T12:08:12;20.75;50.95
63051;SHT30;49136;47.416;19.402;2023-05-08T12:10:40;20.80;49.03
63051;SHT30;49136;47.416;19.402;2023-05-08T12:13:19;20.73;48.26
63051;SHT30;49136;47.416;19.402;2023-05-08T12:15:46;20.80;47.61
63051;SHT30;49136;47.416;19.402;2023-05-08T12:18:12;20.55;47.96
63051;SHT30;49136;47.416;19.402;2023-05-08T12:20:38;20.30;47.61
63051;SHT30;49136;47.416;19.402;2023-05-08T12:23:04;20.61;48.64
63051;SHT30;49136;47.416;19.402;2023-05-08T12:25:29;20.31;47.46
63051;SHT30;49136;47.416;19.402;2023-05-08T12:27:55;20.58;47.76
63051;SHT30;49136;47.416;19.402;2023-05-08T12:30:21;20.65;48.53
63051;SHT30;49136;47.416;19.402;2023-05-08T12:32:47;20.35;49.46
63051;SHT30;49136;47.416;19.402;2023-05-08T12:35:13;20.92;47.10
63051;SHT30;49136;47.416;19.402;2023-05-08T12:37:40;20.48;45.87
63051;SHT30;49136;47.416;19.402;2023-05-08T12:40:06;20.37;46.51
63051;SHT30;49136;47.416;19.402;2023-05-08T12:45:21;20.56;47.01
63051;SHT30;49136;47.416;19.402;2023-05-08T12:47:47;21.14;46.28
63051;SHT30;49136;47.416;19.402;2023-05-08T12:50:15;20.72;44.57
63051;SHT30;49136;47.416;19.402;2023-05-08T12:52:40;20.24;44.96
63051;SHT30;49136;47.416;19.402;2023-05-08T12:55:22;20.93;48.24
63051;SHT30;49136;47.416;19.402;2023-05-08T12:58:09;21.27;45.91
63051;SHT30;49136;47.416;19.402;2023-05-08T13:03:07;21.12;44.23
63051;SHT30;49136;47.416;19.402;2023-05-08T13:05:36;21.34;46.56
63051;SHT30;49136;47.416;19.402;2023-05-08T13:08:06;20.44;45.12
63051;SHT30;49136;47.416;19.402;2023-05-08T13:10:44;20.96;45.32
63051;SHT30;49136;47.416;19.402;2023-05-08T13:13:11;21.31;45.82
63051;SHT30;49136;47.416;19.402;2023-05-08T13:15:37;21.28;45.95
63051;SHT30;49136;47.416;19.402;2023-05-08T13:18:02;21.04;45.88
63051;SHT30;49136;47.416;19.402;2023-05-08T13:20:28;20.77;46.73
63051;SHT30;49136;47.416;19.402;2023-05-08T13:22:53;21.21;48.39
63051;SHT30;49136;47.416;19.402;2023-05-08T13:25:19;21.17;46.97
63051;SHT30;49136;47.416;19.402;2023-05-08T13:27:46;21.37;47.67
63051;SHT30;49136;47.416;19.402;2023-05-08T13:30:12;21.62;45.90
63051;SHT30;49136;47.416;19.402;2023-05-08T13:32:39;20.27;47.43
63051;SHT30;49136;47.416;19.402;2023-05-08T13:35:05;20.61;47.50
63051;SHT30;49136;47.416;19.402;2023-05-08T13:37:30;20.59;46.75
63051;SHT30;49136;47.416;19.402;2023-05-08T13:39:56;21.14;49.36
63051;SHT30;49136;47.416;19.402;2023-05-08T13:42:21;21.51;48.39
63051;SHT30;49136;47.416;19.402;2023-05-08T13:44:47;21.23;46.27
63051;SHT30;49136;47.416;19.402;2023-05-08T13:47:12;20.87;47.45
63051;SHT30;49136;47.416;19.402;2023-05-08T13:49:37;20.58;47.58
63051;SHT30;49136;47.416;19.402;2023-05-08T13:52:03;21.35;47.76
63051;SHT30;49136;47.416;19.402;2023-05-08T13:54:28;21.66;46.66
63051;SHT30;49136;47.416;19.402;2023-05-08T13:56:54;21.34;45.53
63051;SHT30;49136;47.416;19.402;2023-05-08T13:59:20;21.48;45.12
63051;SHT30;49136;47.416;19.402;2023-05-08T14:01:45;20.75;46.27
63051;SHT30;49136;47.416;19.402;2023-05-08T14:04:10;20.51;47.66
63051;SHT30;49136;47.416;19.402;2023-05-08T14:06:36;19.90;49.19
63051;SHT30;49136;47.416;19.402;2023-05-08T14:09:01;20.13;49.89
63051;SHT30;49136;47.416;19.402;2023-05-08T14:11:27;19.75;47.87
63051;SHT30;49136;47.416;19.402;2023-05-08T14:13:54;19.86;50.17
63051;SHT30;49136;47.416;19.402;2023-05-08T14:16:19;19.83;48.57
63051;SHT30;49136;47.416;19.402;2023-05-08T14:18:45;19.43;50.17
63051;SHT30;49136;47.416;19.402;2023-05-08T14:21:10;19.24;50.41
63051;SHT30;49136;47.416;19.402;2023-05-08T14:23:36;19.33;49.74
63051;SHT30;49136;47.416;19.402;2023-05-08T14:26:03;19.66;50.27
63051;SHT30;49136;47.416;19.402;2023-05-08T14:28:28;20.14;51.02
63051;SHT30;49136;47.416;19.402;2023-05-08T14:30:54;20.40;48.34
63051;SHT30;49136;47.416;19.402;2023-05-08T14:33:20;20.76;49.81
63051;SHT30;49136;47.416;19.402;2023-05-08T14:35:45;20.56;49.08
63051;SHT30;49136;47.416;19.402;2023-05-08T14:38:13;19.71;49.78
63051;SHT30;49136;47.416;19.402;2023-05-08T14:40:38;19.44;49.60
63051;SHT30;49136;47.416;19.402;2023-05-08T14:43:04;19.86;50.10
63051;SHT30;49136;47.416;19.402;2023-05-08T14:45:29;19.99;52.98
63051;SHT30;49136;47.416;19.402;2023-05-08T14:47:55;20.45;48.83
63051;SHT30;49136;47.416;19.402;2023-05-08T14:50:20;19.75;48.69
63051;SHT30;49136;47.416;19.402;2023-05-08T14:52:48;19.28;50.59
63051;SHT30;49136;47.416;19.402;2023-05-08T14:55:14;18.41;50.73
63051;SHT30;49136;47.416;19.402;2023-05-08T14:57:48;18.55;51.98
63051;SHT30;49136;47.416;19.402;2023-05-08T15:00:14;18.57;49.70
63051;SHT30;49136;47.416;19.402;2023-05-08T15:02:40;18.96;50.34
63051;SHT30;49136;47.416;19.402;2023-05-08T15:05:06;19.16;50.75
63051;SHT30;49136;47.416;19.402;2023-05-08T15:07:32;19.26;50.72
63051;SHT30;49136;47.416;19.402;2023-05-08T15:09:57;19.38;51.55
63051;SHT30;49136;47.416;19.402;2023-05-08T15:12:23;19.41;50.82
63051;SHT30;49136;47.416;19.402;2023-05-08T15:14:48;19.23;50.22
63051;SHT30;49136;47.416;19.402;2023-05-08T15:17:13;18.89;51.08
63051;SHT30;49136;47.416;19.402;2023-05-08T15:19:39;19.05;51.77
63051;SHT30;49136;47.416;19.402;2023-05-08T15:22:04;18.76;51.78
63051;SHT30;49136;47.416;19.402;2023-05-08T15:24:30;18.79;51.91
63051;SHT30;49136;47.416;19.402;2023-05-08T15:26:55;18.82;52.62
63051;SHT30;49136;47.416;19.402;2023-05-08T15:29:21;18.40;51.85
63051;SHT30;49136;47.416;19.402;2023-05-08T15:31:46;18.68;52.49
63051;SHT30;49136;47.416;19.402;2023-05-08T15:34:12;18.50;51.98
63051;SHT30;49136;47.416;19.402;2023-05-08T15:36:37;18.41;52.93
63051;SHT30;49136;47.416;19.402;2023-05-08T15:39:03;18.09;52.78
63051;SHT30;49136;47.416;19.402;2023-05-08T15:41:28;18.17;53.10
63051;SHT30;49136;47.416;19.402;2023-05-08T15:43:54;18.17;53.21
63051;SHT30;49136;47.416;19.402;2023-05-08T15:46:19;17.85;53.98
63051;SHT30;49136;47.416;19.402;2023-05-08T15:48:45;17.71;53.79
63051;SHT30;49136;47.416;19.402;2023-05-08T15:51:10;17.35;54.59
63051;SHT30;49136;47.416;19.402;2023-05-08T15:53:36;17.18;54.50
63051;SHT30;49136;47.416;19.402;2023-05-08T15:56:04;17.23;54.87
63051;SHT30;49136;47.416;19.402;2023-05-08T15:58:29;17.12;54.68
63051;SHT30;49136;47.416;19.402;2023-05-08T16:00:55;17.12;54.04
63051;SHT30;49136;47.416;19.402;2023-05-08T16:03:22;17.19;55.30
63051;SHT30;49136;47.416;19.402;2023-05-08T16:05:47;17.10;55.68
63051;SHT30;49136;47.416;19.402;2023-05-08T16:08:13;16.77;55.57
63051;SHT30;49136;47.416;19.402;2023-05-08T16:10:39;16.56;57.78
63051;SHT30;49136;47.416;19.402;2023-05-08T16:13:05;16.41;56.01
63051;SHT30;49136;47.416;19.402;2023-05-08T16:15:30;16.41;56.38
63051;SHT30;49136;47.416;19.402;2023-05-08T16:17:55;16.26;56.57
63051;SHT30;49136;47.416;19.402;2023-05-08T16:20:21;16.21;56.45
63051;SHT30;49136;47.416;19.402;2023-05-08T16:22:46;16.07;56.86
63051;SHT30;49136;47.416;19.402;2023-05-08T16:25:12;15.93;56.26
63051;SHT30;49136;47.416;19.402;2023-05-08T16:27:37;15.87;57.47